sensor_id;sensor_type;location;lat;lon;timestamp;pressure;altitude;pressure_sealevel;temperature;humidity
80678;BME280;70042;52.494;5.502;2023-07-09T00:00:50;101875.38;;;24.71;59.08
80678;BME280;70042;52.494;5.502;2023-07-09T00:03:15;101866.53;;;24.69;59.08
80678;BME280;70042;52.494;5.502;2023-07-09T00:05:42;101871.09;;;24.67;59.01
80678;BME280;70042;52.494;5.502;2023-07-09T00:08:25;101871.09;;;24.67;58.96
80678;BME280;70042;52.494;5.502;2023-07-09T00:10:53;101863.19;;;24.64;58.97
80678;BME280;70042;52.494;5.502;2023-07-09T00:13:20;101866.69;;;24.65;59.21
80678;BME280;70042;52.494;5.502;2023-07-09T00:15:45;101864.09;;;24.63;59.05
80678;BME280;70042;52.494;5.502;2023-07-09T00:18:10;101861.44;;;24.63;59.13
80678;BME280;70042;52.494;5.502;2023-07-09T00:20:36;101857.00;;;24.62;59.07
80678;BME280;70042;52.494;5.502;2023-07-09T00:23:01;101854.34;;;24.62;59.07
80678;BME280;70042;52.494;5.502;2023-07-09T00:25:30;101859.69;;;24.62;59.09
80678;BME280;70042;52.494;5.502;2023-07-09T00:27:56;101853.34;;;24.65;58.98
80678;BME280;70042;52.494;5.502;2023-07-09T00:30:22;101851.63;;;24.64;58.71
80678;BME280;70042;52.494;5.502;2023-07-09T00:32:49;101869.34;;;24.66;58.76
80678;BME280;70042;52.494;5.502;2023-07-09T00:35:15;101869.34;;;24.66;58.79
80678;BME280;70042;52.494;5.502;2023-07-09T00:37:41;101872.94;;;24.65;58.66
80678;BME280;70042;52.494;5.502;2023-07-09T00:40:14;101864.91;;;24.65;58.71
80678;BME280;70042;52.494;5.502;2023-07-09T00:42:44;101855.09;;;24.66;58.68
80678;BME280;70042;52.494;5.502;2023-07-09T00:45:19;101869.44;;;24.63;58.84
80678;BME280;70042;52.494;5.502;2023-07-09T00:47:49;101868.56;;;24.63;58.94
80678;BME280;70042;52.494;5.502;2023-07-09T00:52:57;101887.34;;;24.61;59.00
80678;BME280;70042;52.494;5.502;2023-07-09T00:55:28;101880.25;;;24.60;59.00
80678;BME280;70042;52.494;5.502;2023-07-09T00:58:00;101883.84;;;24.59;58.90
80678;BME280;70042;52.494;5.502;2023-07-09T01:00:36;101877.63;;;24.59;59.02
80678;BME280;70042;52.494;5.502;2023-07-09T01:03:18;101884.72;;;24.60;58.95
80678;BME280;70042;52.494;5.502;2023-07-09T01:05:47;101878.59;;;24.58;59.02
80678;BME280;70042;52.494;5.502;2023-07-09T01:08:18;101882.16;;;24.57;58.99
80678;BME280;70042;52.494;5.502;2023-07-09T01:10:44;101879.56;;;24.55;59.00
80678;BME280;70042;52.494;5.502;2023-07-09T01:13:09;101874.22;;;24.55;58.92
80678;BME280;70042;52.494;5.502;2023-07-09T01:15:36;101882.25;;;24.55;58.99
80678;BME280;70042;52.494;5.502;2023-07-09T01:18:03;101874.22;;;24.55;59.19
80678;BME280;70042;52.494;5.502;2023-07-09T01:20:30;101878.75;;;24.53;59.16
80678;BME280;70042;52.494;5.502;2023-07-09T01:22:56;101879.72;;;24.51;59.19
80678;BME280;70042;52.494;5.502;2023-07-09T01:25:22;101877.09;;;24.49;59.17
80678;BME280;70042;52.494;5.502;2023-07-09T01:27:48;101877.09;;;24.49;59.30
80678;BME280;70042;52.494;5.502;2023-07-09T01:30:19;101873.50;;;24.50;59.04
80678;BME280;70042;52.494;5.502;2023-07-09T01:32:49;101869.09;;;24.49;58.99
80678;BME280;70042;52.494;5.502;2023-07-09T01:35:16;101869.09;;;24.49;59.12
80678;BME280;70042;52.494;5.502;2023-07-09T01:37:43;101866.47;;;24.48;59.14
80678;BME280;70042;52.494;5.502;2023-07-09T01:40:11;101867.38;;;24.48;59.02
80678;BME280;70042;52.494;5.502;2023-07-09T01:42:37;101867.38;;;24.48;59.08
80678;BME280;70042;52.494;5.502;2023-07-09T01:45:05;101872.75;;;24.47;59.27
80678;BME280;70042;52.494;5.502;2023-07-09T01:47:31;101872.75;;;24.47;59.25
80678;BME280;70042;52.494;5.502;2023-07-09T01:49:56;101883.41;;;24.48;59.17
80678;BME280;70042;52.494;5.502;2023-07-09T01:52:29;101887.78;;;24.49;59.35
80678;BME280;70042;52.494;5.502;2023-07-09T01:54:55;101884.28;;;24.49;59.14
80678;BME280;70042;52.494;5.502;2023-07-09T01:57:31;101884.31;;;24.47;59.14
80678;BME280;70042;52.494;5.502;2023-07-09T02:00:19;101895.91;;;24.46;59.14
80678;BME280;70042;52.494;5.502;2023-07-09T02:02:46;101890.66;;;24.45;58.92
80678;BME280;70042;52.494;5.502;2023-07-09T02:05:14;101900.47;;;24.44;59.27
80678;BME280;70042;52.494;5.502;2023-07-09T02:07:40;101895.13;;;24.44;59.03
80678;BME280;70042;52.494;5.502;2023-07-09T02:10:05;101896.00;;;24.45;59.03
80678;BME280;70042;52.494;5.502;2023-07-09T02:12:31;101897.78;;;24.44;59.22
80678;BME280;70042;52.494;5.502;2023-07-09T02:14:56;101897.78;;;24.44;59.26
80678;BME280;70042;52.494;5.502;2023-07-09T02:17:22;101891.53;;;24.45;59.29
80678;BME280;70042;52.494;5.502;2023-07-09T02:19:47;101896.91;;;24.43;59.17
80678;BME280;70042;52.494;5.502;2023-07-09T02:22:13;101889.78;;;24.44;59.05
80678;BME280;70042;52.494;5.502;2023-07-09T02:24:38;101888.09;;;24.41;59.15
80678;BME280;70042;52.494;5.502;2023-07-09T02:27:06;101893.34;;;24.43;59.13
80678;BME280;70042;52.494;5.502;2023-07-09T02:29:32;101889.06;;;24.39;59.07
80678;BME280;70042;52.494;5.502;2023-07-09T02:31:59;101886.41;;;24.39;59.31
80678;BME280;70042;52.494;5.502;2023-07-09T02:34:26;101894.47;;;24.37;59.26
80678;BME280;70042;52.494;5.502;2023-07-09T02:36:52;101887.38;;;24.36;59.30
80678;BME280;70042;52.494;5.502;2023-07-09T02:39:19;101887.38;;;24.36;59.21
80678;BME280;70042;52.494;5.502;2023-07-09T02:41:44;101884.75;;;24.35;59.28
80678;BME280;70042;52.494;5.502;2023-07-09T02:44:10;101892.66;;;24.38;59.18
80678;BME280;70042;52.494;5.502;2023-07-09T02:46:35;101887.44;;;24.35;59.32
80678;BME280;70042;52.494;5.502;2023-07-09T02:49:04;101884.75;;;24.35;58.96
80678;BME280;70042;52.494;5.502;2023-07-09T02:51:29;101893.59;;;24.37;59.22
80678;BME280;70042;52.494;5.502;2023-07-09T02:53:56;101893.59;;;24.37;59.14
80678;BME280;70042;52.494;5.502;2023-07-09T02:56:22;101905.09;;;24.39;59.17
80678;BME280;70042;52.494;5.502;2023-07-09T02:58:47;101900.69;;;24.38;59.18
80678;BME280;70042;52.494;5.502;2023-07-09T03:01:13;101895.34;;;24.38;59.00
80678;BME280;70042;52.494;5.502;2023-07-09T03:03:39;101898.94;;;24.37;59.16
80678;BME280;70042;52.494;5.502;2023-07-09T03:06:05;101895.34;;;24.38;59.20
80678;BME280;70042;52.494;5.502;2023-07-09T03:08:31;101892.72;;;24.36;59.11
80678;BME280;70042;52.494;5.502;2023-07-09T03:10:57;101886.53;;;24.36;59.09
80678;BME280;70042;52.494;5.502;2023-07-09T03:13:22;101893.69;;;24.34;59.16
80678;BME280;70042;52.494;5.502;2023-07-09T03:15:55;101883.00;;;24.34;58.98
80678;BME280;70042;52.494;5.502;2023-07-09T03:18:21;101891.13;;;24.31;59.26
80678;BME280;70042;52.494;5.502;2023-07-09T03:20:46;101886.75;;;24.30;59.19
80678;BME280;70042;52.494;5.502;2023-07-09T03:23:12;101883.19;;;24.29;59.15
80678;BME280;70042;52.494;5.502;2023-07-09T03:25:41;101889.41;;;24.30;59.25
80678;BME280;70042;52.494;5.502;2023-07-09T03:28:06;101895.69;;;24.29;59.28
80678;BME280;70042;52.494;5.502;2023-07-09T03:30:32;101892.16;;;24.27;59.29
80678;BME280;70042;52.494;5.502;2023-07-09T03:32:57;101888.69;;;24.25;59.35
80678;BME280;70042;52.494;5.502;2023-07-09T03:35:22;101886.03;;;24.25;59.29
80678;BME280;70042;52.494;5.502;2023-07-09T03:37:48;101884.22;;;24.25;59.37
80678;BME280;70042;52.494;5.502;2023-07-09T03:40:19;101878.00;;;24.25;59.38
80678;BME280;70042;52.494;5.502;2023-07-09T03:42:45;101887.78;;;24.26;59.26
80678;BME280;70042;52.494;5.502;2023-07-09T03:45:10;101890.44;;;24.26;59.36
80678;BME280;70042;52.494;5.502;2023-07-09T03:47:35;101886.81;;;24.27;59.18
80678;BME280;70042;52.494;5.502;2023-07-09T03:50:01;101885.09;;;24.26;59.38
80678;BME280;70042;52.494;5.502;2023-07-09T03:52:26;101893.03;;;24.27;59.32
80678;BME280;70042;52.494;5.502;2023-07-09T03:54:51;101886.81;;;24.27;59.22
80678;BME280;70042;52.494;5.502;2023-07-09T03:57:17;101901.94;;;24.28;59.22
80678;BME280;70042;52.494;5.502;2023-07-09T03:59:42;101906.41;;;24.27;59.16
80678;BME280;70042;52.494;5.502;2023-07-09T04:02:07;101901.06;;;24.27;59.02
80678;BME280;70042;52.494;5.502;2023-07-09T04:04:33;101894.91;;;24.25;59.29
80678;BME280;70042;52.494;5.502;2023-07-09T04:06:58;101903.81;;;24.26;59.36
80678;BME280;70042;52.494;5.502;2023-07-09T04:09:23;101902.97;;;24.24;59.17
80678;BME280;70042;52.494;5.502;2023-07-09T04:11:49;101898.56;;;24.23;59.39
80678;BME280;70042;52.494;5.502;2023-07-09T04:14:14;101896.88;;;24.20;59.38
80678;BME280;70042;52.494;5.502;2023-07-09T04:16:39;101897.72;;;24.21;59.71
80678;BME280;70042;52.494;5.502;2023-07-09T04:19:05;101901.34;;;24.20;59.38
80678;BME280;70042;52.494;5.502;2023-07-09T04:21:30;101910.28;;;24.19;59.46
80678;BME280;70042;52.494;5.502;2023-07-09T04:23:55;101908.53;;;24.18;59.35
80678;BME280;70042;52.494;5.502;2023-07-09T04:26:21;101906.81;;;24.17;59.48
80678;BME280;70042;52.494;5.502;2023-07-09T04:28:48;101903.19;;;24.18;59.63
80678;BME280;70042;52.494;5.502;2023-07-09T04:31:14;101913.81;;;24.19;59.41
80678;BME280;70042;52.494;5.502;2023-07-09T04:33:39;101904.81;;;24.22;59.39
80678;BME280;70042;52.494;5.502;2023-07-09T04:36:05;101904.81;;;24.22;59.33
80678;BME280;70042;52.494;5.502;2023-07-09T04:38:30;101905.75;;;24.21;59.40
80678;BME280;70042;52.494;5.502;2023-07-09T04:40:56;101917.25;;;24.23;59.38
80678;BME280;70042;52.494;5.502;2023-07-09T04:43:21;101911.91;;;24.23;59.49
80678;BME280;70042;52.494;5.502;2023-07-09T04:45:47;101914.59;;;24.23;59.40
80678;BME280;70042;52.494;5.502;2023-07-09T04:48:12;101919.06;;;24.22;59.34
80678;BME280;70042;52.494;5.502;2023-07-09T04:50:38;101919.94;;;24.23;59.27
80678;BME280;70042;52.494;5.502;2023-07-09T04:53:05;101917.25;;;24.23;59.33
80678;BME280;70042;52.494;5.502;2023-07-09T04:55:30;101917.25;;;24.23;59.29
80678;BME280;70042;52.494;5.502;2023-07-09T04:57:56;101926.19;;;24.22;59.25
80678;BME280;70042;52.494;5.502;2023-07-09T05:00:22;101929.78;;;24.21;59.38
80678;BME280;70042;52.494;5.502;2023-07-09T05:02:47;101925.41;;;24.18;59.53
80678;BME280;70042;52.494;5.502;2023-07-09T05:05:13;101927.22;;;24.18;59.40
80678;BME280;70042;52.494;5.502;2023-07-09T05:07:39;101923.69;;;24.17;59.54
80678;BME280;70042;52.494;5.502;2023-07-09T05:10:05;101923.69;;;24.17;59.29
80678;BME280;70042;52.494;5.502;2023-07-09T05:12:31;101920.97;;;24.19;59.35
80678;BME280;70042;52.494;5.502;2023-07-09T05:14:56;101913.81;;;24.19;59.29
80678;BME280;70042;52.494;5.502;2023-07-09T05:17:23;101917.38;;;24.20;59.39
80678;BME280;70042;52.494;5.502;2023-07-09T05:19:49;101911.09;;;24.21;59.50
80678;BME280;70042;52.494;5.502;2023-07-09T05:22:15;101909.34;;;24.20;59.21
80678;BME280;70042;52.494;5.502;2023-07-09T05:24:40;101908.41;;;24.21;59.26
80678;BME280;70042;52.494;5.502;2023-07-09T05:27:06;101910.16;;;24.22;59.15
80678;BME280;70042;52.494;5.502;2023-07-09T05:29:31;101906.59;;;24.23;59.05
80678;BME280;70042;52.494;5.502;2023-07-09T05:31:57;101911.09;;;24.21;59.26
80678;BME280;70042;52.494;5.502;2023-07-09T05:34:22;101922.72;;;24.20;59.21
80678;BME280;70042;52.494;5.502;2023-07-09T05:36:48;101922.72;;;24.20;59.14
80678;BME280;70042;52.494;5.502;2023-07-09T05:39:13;101911.97;;;24.21;59.08
80678;BME280;70042;52.494;5.502;2023-07-09T05:41:39;101915.50;;;24.22;59.20
80678;BME280;70042;52.494;5.502;2023-07-09T05:44:04;101918.97;;;24.24;59.00
80678;BME280;70042;52.494;5.502;2023-07-09T05:46:34;101920.84;;;24.22;59.10
80678;BME280;70042;52.494;5.502;2023-07-09T05:49:02;101920.84;;;24.22;59.15
80678;BME280;70042;52.494;5.502;2023-07-09T05:51:27;101921.72;;;24.22;59.03
80678;BME280;70042;52.494;5.502;2023-07-09T05:53:53;101926.19;;;24.22;59.07
80678;BME280;70042;52.494;5.502;2023-07-09T05:56:18;101927.94;;;24.23;59.17
80678;BME280;70042;52.494;5.502;2023-07-09T05:58:43;101929.66;;;24.24;59.00
80678;BME280;70042;52.494;5.502;2023-07-09T06:01:09;101936.75;;;24.25;58.90
80678;BME280;70042;52.494;5.502;2023-07-09T06:03:34;101932.34;;;24.24;59.03
80678;BME280;70042;52.494;5.502;2023-07-09T06:05:59;101936.75;;;24.25;58.84
80678;BME280;70042;52.494;5.502;2023-07-09T06:08:25;101935.00;;;24.24;58.95
80678;BME280;70042;52.494;5.502;2023-07-09T06:11:01;101936.75;;;24.25;58.90
80678;BME280;70042;52.494;5.502;2023-07-09T06:13:28;101934.91;;;24.27;58.72
80678;BME280;70042;52.494;5.502;2023-07-09T06:15:55;101935.75;;;24.29;58.65
80678;BME280;70042;52.494;5.502;2023-07-09T06:18:22;101940.16;;;24.30;58.79
80678;BME280;70042;52.494;5.502;2023-07-09T06:20:49;101933.88;;;24.31;58.61
80678;BME280;70042;52.494;5.502;2023-07-09T06:23:15;101929.38;;;24.33;58.68
80678;BME280;70042;52.494;5.502;2023-07-09T06:25:41;101932.84;;;24.35;58.58
80678;BME280;70042;52.494;5.502;2023-07-09T06:28:07;101933.66;;;24.37;58.68
80678;BME280;70042;52.494;5.502;2023-07-09T06:30:32;101929.97;;;24.41;58.39
80678;BME280;70042;52.494;5.502;2023-07-09T06:32:57;101936.97;;;24.43;58.41
80678;BME280;70042;52.494;5.502;2023-07-09T06:35:23;101937.75;;;24.47;58.44
80678;BME280;70042;52.494;5.502;2023-07-09T06:37:48;101941.22;;;24.49;58.25
80678;BME280;70042;52.494;5.502;2023-07-09T06:40:14;101947.34;;;24.53;58.24
80678;BME280;70042;52.494;5.502;2023-07-09T06:42:39;101947.22;;;24.56;58.24
80678;BME280;70042;52.494;5.502;2023-07-09T06:45:04;101939.16;;;24.57;58.14
80678;BME280;70042;52.494;5.502;2023-07-09T06:47:30;101945.38;;;24.58;58.10
80678;BME280;70042;52.494;5.502;2023-07-09T06:49:55;101952.53;;;24.57;57.99
80678;BME280;70042;52.494;5.502;2023-07-09T06:52:21;101946.31;;;24.57;57.95
80678;BME280;70042;52.494;5.502;2023-07-09T06:54:46;101944.50;;;24.57;58.09
80678;BME280;70042;52.494;5.502;2023-07-09T06:57:11;101948.94;;;24.58;58.03
80678;BME280;70042;52.494;5.502;2023-07-09T06:59:37;101953.31;;;24.59;57.98
80678;BME280;70042;52.494;5.502;2023-07-09T07:02:03;101955.97;;;24.61;58.03
80678;BME280;70042;52.494;5.502;2023-07-09T07:04:28;101953.22;;;24.62;58.04
80678;BME280;70042;52.494;5.502;2023-07-09T07:06:54;101955.88;;;24.62;58.00
80678;BME280;70042;52.494;5.502;2023-07-09T07:09:22;101963.91;;;24.62;58.05
80678;BME280;70042;52.494;5.502;2023-07-09T07:11:47;101960.31;;;24.63;57.93
80678;BME280;70042;52.494;5.502;2023-07-09T07:14:13;101954.06;;;24.64;57.77
80678;BME280;70042;52.494;5.502;2023-07-09T07:16:38;101967.41;;;24.64;58.01
80678;BME280;70042;52.494;5.502;2023-07-09T07:19:03;101972.75;;;24.64;57.85
80678;BME280;70042;52.494;5.502;2023-07-09T07:21:30;101978.00;;;24.67;57.88
80678;BME280;70042;52.494;5.502;2023-07-09T07:23:55;101976.13;;;24.69;57.83
80678;BME280;70042;52.494;5.502;2023-07-09T07:26:21;101979.59;;;24.71;57.87
80678;BME280;70042;52.494;5.502;2023-07-09T07:28:46;101984.03;;;24.72;57.84
80678;BME280;70042;52.494;5.502;2023-07-09T07:31:12;101989.25;;;24.75;57.79
80678;BME280;70042;52.494;5.502;2023-07-09T07:33:39;101987.41;;;24.77;57.79
80678;BME280;70042;52.494;5.502;2023-07-09T12:17:02;101958.56;;;25.98;57.81
80678;BME280;70042;52.494;5.502;2023-07-09T12:19:30;101945.22;;;25.97;58.04
80678;BME280;70042;52.494;5.502;2023-07-09T12:21:57;101946.97;;;25.98;57.48
80678;BME280;70042;52.494;5.502;2023-07-09T12:24:29;101935.25;;;26.00;57.76
80678;BME280;70042;52.494;5.502;2023-07-09T12:27:01;101926.94;;;26.07;57.49
80678;BME280;70042;52.494;5.502;2023-07-09T12:29:36;101923.34;;;26.08;57.52
80678;BME280;70042;52.494;5.502;2023-07-09T12:32:16;101920.53;;;26.11;57.57
80678;BME280;70042;52.494;5.502;2023-07-09T12:34:42;101907.97;;;26.13;57.29
80678;BME280;70042;52.494;5.502;2023-07-09T12:37:14;101907.88;;;26.16;57.85
80678;BME280;70042;52.494;5.502;2023-07-09T12:39:39;101895.38;;;26.15;57.82
80678;BME280;70042;52.494;5.502;2023-07-09T12:42:05;101899.94;;;26.13;57.58
80678;BME280;70042;52.494;5.502;2023-07-09T12:44:39;101893.84;;;26.09;57.81
80678;BME280;70042;52.494;5.502;2023-07-09T12:47:05;101893.88;;;26.08;57.96
80678;BME280;70042;52.494;5.502;2023-07-09T12:49:38;101896.66;;;26.06;57.91
80678;BME280;70042;52.494;5.502;2023-07-09T12:52:19;101896.69;;;26.05;58.01
80678;BME280;70042;52.494;5.502;2023-07-09T12:54:59;101904.72;;;26.05;57.96
80678;BME280;70042;52.494;5.502;2023-07-09T12:57:25;101901.13;;;26.06;57.84
80678;BME280;70042;52.494;5.502;2023-07-09T12:59:51;101909.94;;;26.08;57.86
80678;BME280;70042;52.494;5.502;2023-07-09T13:04:48;101923.06;;;26.14;57.67
80678;BME280;70042;52.494;5.502;2023-07-09T13:09:51;101919.66;;;26.10;57.89
80678;BME280;70042;52.494;5.502;2023-07-09T13:12:17;101929.50;;;26.10;57.85
80678;BME280;70042;52.494;5.502;2023-07-09T13:14:52;101926.03;;;26.08;58.22
80678;BME280;70042;52.494;5.502;2023-07-09T13:17:18;101934.00;;;26.09;58.16
80678;BME280;70042;52.494;5.502;2023-07-09T13:19:43;101946.44;;;26.10;58.00
80678;BME280;70042;52.494;5.502;2023-07-09T13:22:13;101956.97;;;26.15;58.15
80678;BME280;70042;52.494;5.502;2023-07-09T13:24:39;101978.41;;;26.15;57.83
80678;BME280;70042;52.494;5.502;2023-07-09T13:27:04;101983.81;;;26.13;58.05
80678;BME280;70042;52.494;5.502;2023-07-09T13:29:31;101983.81;;;26.13;58.19
80678;BME280;70042;52.494;5.502;2023-07-09T13:31:56;101983.06;;;26.10;58.16
80678;BME280;70042;52.494;5.502;2023-07-09T13:34:27;101991.19;;;26.08;58.22
80678;BME280;70042;52.494;5.502;2023-07-09T13:36:54;102001.16;;;26.05;58.72
80678;BME280;70042;52.494;5.502;2023-07-09T13:39:22;101983.34;;;26.04;58.72
80678;BME280;70042;52.494;5.502;2023-07-09T13:41:52;101980.78;;;26.00;58.75
80678;BME280;70042;52.494;5.502;2023-07-09T13:44:25;101972.75;;;26.00;58.97
80678;BME280;70042;52.494;5.502;2023-07-09T13:46:51;101962.03;;;26.00;58.63
80678;BME280;70042;52.494;5.502;2023-07-09T13:52:05;101947.72;;;26.02;58.26
80678;BME280;70042;52.494;5.502;2023-07-09T13:54:32;101946.84;;;26.01;58.05
80678;BME280;70042;52.494;5.502;2023-07-09T13:57:05;101943.28;;;26.00;58.03
80678;BME280;70042;52.494;5.502;2023-07-09T13:59:32;101944.25;;;25.99;58.63
80678;BME280;70042;52.494;5.502;2023-07-09T14:01:58;101938.94;;;25.98;58.42
80678;BME280;70042;52.494;5.502;2023-07-09T14:04:26;101929.09;;;25.98;58.29
80678;BME280;70042;52.494;5.502;2023-07-09T14:06:53;101916.63;;;25.97;57.99
80678;BME280;70042;52.494;5.502;2023-07-09T14:09:18;101921.06;;;25.98;58.27
80678;BME280;70042;52.494;5.502;2023-07-09T14:11:45;101922.81;;;25.99;58.18
80678;BME280;70042;52.494;5.502;2023-07-09T14:14:20;101935.25;;;26.00;57.86
80678;BME280;70042;52.494;5.502;2023-07-09T14:16:51;101945.91;;;26.02;58.04
80678;BME280;70042;52.494;5.502;2023-07-09T14:19:19;101938.75;;;26.03;58.58
80678;BME280;70042;52.494;5.502;2023-07-09T14:21:46;101938.88;;;25.99;58.09
80678;BME280;70042;52.494;5.502;2023-07-09T14:24:34;101953.06;;;26.02;58.24
80678;BME280;70042;52.494;5.502;2023-07-09T14:26:59;101959.34;;;26.00;58.35
80678;BME280;70042;52.494;5.502;2023-07-09T14:29:25;101970.94;;;26.01;58.12
80678;BME280;70042;52.494;5.502;2023-07-09T14:31:51;101965.66;;;25.99;58.25
80678;BME280;70042;52.494;5.502;2023-07-09T14:34:26;101960.31;;;25.99;58.61
80678;BME280;70042;52.494;5.502;2023-07-09T14:36:54;101955.94;;;25.97;58.45
80678;BME280;70042;52.494;5.502;2023-07-09T14:39:21;101964.09;;;25.94;58.90
80678;BME280;70042;52.494;5.502;2023-07-09T14:41:49;101966.91;;;25.91;58.61
80678;BME280;70042;52.494;5.502;2023-07-09T14:44:21;101962.56;;;25.88;58.61
80678;BME280;70042;52.494;5.502;2023-07-09T14:46:49;101978.75;;;25.85;59.04
80678;BME280;70042;52.494;5.502;2023-07-09T14:49:16;101971.69;;;25.84;58.92
80678;BME280;70042;52.494;5.502;2023-07-09T14:51:42;101960.13;;;25.82;58.86
80678;BME280;70042;52.494;5.502;2023-07-09T14:54:17;101965.56;;;25.81;59.11
80678;BME280;70042;52.494;5.502;2023-07-09T14:56:43;101946.00;;;25.79;59.20
80678;BME280;70042;52.494;5.502;2023-07-09T14:59:08;101942.44;;;25.78;59.44
80678;BME280;70042;52.494;5.502;2023-07-09T15:01:35;101943.41;;;25.77;59.53
80678;BME280;70042;52.494;5.502;2023-07-09T15:04:30;101933.63;;;25.76;59.48
80678;BME280;70042;52.494;5.502;2023-07-09T15:06:56;101956.84;;;25.76;59.55
80678;BME280;70042;52.494;5.502;2023-07-09T15:09:24;101964.81;;;25.77;59.25
80678;BME280;70042;52.494;5.502;2023-07-09T15:11:57;101971.97;;;25.77;59.37
80678;BME280;70042;52.494;5.502;2023-07-09T15:14:24;101963.06;;;25.76;59.50
80678;BME280;70042;52.494;5.502;2023-07-09T15:16:50;101972.03;;;25.75;59.90
80678;BME280;70042;52.494;5.502;2023-07-09T15:19:16;101963.19;;;25.73;59.55
80678;BME280;70042;52.494;5.502;2023-07-09T15:21:42;101952.63;;;25.70;59.80
80678;BME280;70042;52.494;5.502;2023-07-09T15:24:20;101944.63;;;25.69;59.86
80678;BME280;70042;52.494;5.502;2023-07-09T15:26:52;102038.28;;;25.70;59.88
80678;BME280;70042;52.494;5.502;2023-07-09T15:29:18;102250.69;;;25.69;60.24
80678;BME280;70042;52.494;5.502;2023-07-09T15:31:44;102236.44;;;25.69;60.83
80678;BME280;70042;52.494;5.502;2023-07-09T15:34:19;102313.22;;;25.68;61.24
80678;BME280;70042;52.494;5.502;2023-07-09T15:36:47;102197.28;;;25.66;61.37
80678;BME280;70042;52.494;5.502;2023-07-09T15:39:17;102129.53;;;25.64;62.04
80678;BME280;70042;52.494;5.502;2023-07-09T15:41:42;102127.75;;;25.65;62.62
80678;BME280;70042;52.494;5.502;2023-07-09T15:44:15;102112.69;;;25.62;61.66
80678;BME280;70042;52.494;5.502;2023-07-09T15:46:47;102097.41;;;25.64;61.41
80678;BME280;70042;52.494;5.502;2023-07-09T15:49:14;102079.47;;;25.66;63.64
80678;BME280;70042;52.494;5.502;2023-07-09T15:51:39;102073.13;;;25.69;63.36
80678;BME280;70042;52.494;5.502;2023-07-09T15:54:16;102067.69;;;25.72;64.63
80678;BME280;70042;52.494;5.502;2023-07-09T15:56:42;102073.75;;;25.75;64.23
80678;BME280;70042;52.494;5.502;2023-07-09T16:01:50;102066.44;;;25.80;63.37
80678;BME280;70042;52.494;5.502;2023-07-09T16:04:15;102055.66;;;25.82;62.98
80678;BME280;70042;52.494;5.502;2023-07-09T16:06:42;102049.38;;;25.83;63.67
80678;BME280;70042;52.494;5.502;2023-07-09T16:09:07;102047.56;;;25.83;63.55
80678;BME280;70042;52.494;5.502;2023-07-09T16:11:33;102035.94;;;25.84;64.30
80678;BME280;70042;52.494;5.502;2023-07-09T16:14:01;102032.44;;;25.82;64.42
80678;BME280;70042;52.494;5.502;2023-07-09T16:16:26;102032.44;;;25.82;63.59
80678;BME280;70042;52.494;5.502;2023-07-09T16:18:52;102037.00;;;25.80;63.36
80678;BME280;70042;52.494;5.502;2023-07-09T16:23:48;102032.56;;;25.79;64.17
80678;BME280;70042;52.494;5.502;2023-07-09T16:26:14;102025.53;;;25.77;63.99
80678;BME280;70042;52.494;5.502;2023-07-09T16:28:39;102013.06;;;25.76;64.30
80678;BME280;70042;52.494;5.502;2023-07-09T16:31:04;102013.06;;;25.76;63.35
80678;BME280;70042;52.494;5.502;2023-07-09T16:33:30;102006.84;;;25.75;63.86
80678;BME280;70042;52.494;5.502;2023-07-09T16:35:55;102000.56;;;25.76;63.63
80678;BME280;70042;52.494;5.502;2023-07-09T16:38:21;101999.69;;;25.76;64.24
80678;BME280;70042;52.494;5.502;2023-07-09T16:40:46;101995.19;;;25.76;64.54
80678;BME280;70042;52.494;5.502;2023-07-09T16:43:17;101995.19;;;25.76;64.28
80678;BME280;70042;52.494;5.502;2023-07-09T16:45:44;101989.91;;;25.75;63.71
80678;BME280;70042;52.494;5.502;2023-07-09T16:48:17;101991.72;;;25.74;63.82
80678;BME280;70042;52.494;5.502;2023-07-09T16:50:42;101997.97;;;25.75;64.27
80678;BME280;70042;52.494;5.502;2023-07-09T16:53:16;102001.56;;;25.74;63.58
80678;BME280;70042;52.494;5.502;2023-07-09T16:55:42;102002.44;;;25.74;64.39
80678;BME280;70042;52.494;5.502;2023-07-09T16:58:18;101998.88;;;25.74;64.27
80678;BME280;70042;52.494;5.502;2023-07-09T17:00:44;102004.16;;;25.75;64.62
80678;BME280;70042;52.494;5.502;2023-07-09T17:03:11;102000.56;;;25.76;64.35
80678;BME280;70042;52.494;5.502;2023-07-09T17:05:37;102005.03;;;25.76;64.80
80678;BME280;70042;52.494;5.502;2023-07-09T17:08:03;102016.56;;;25.78;64.72
80678;BME280;70042;52.494;5.502;2023-07-09T17:10:28;102012.13;;;25.77;64.93
80678;BME280;70042;52.494;5.502;2023-07-09T17:12:57;102018.41;;;25.76;64.93
80678;BME280;70042;52.494;5.502;2023-07-09T17:15:29;102017.53;;;25.75;64.54
80678;BME280;70042;52.494;5.502;2023-07-09T17:17:59;102030.09;;;25.75;64.58
80678;BME280;70042;52.494;5.502;2023-07-09T17:20:27;102044.38;;;25.74;65.51
80678;BME280;70042;52.494;5.502;2023-07-09T17:22:55;102055.97;;;25.74;64.71
80678;BME280;70042;52.494;5.502;2023-07-09T17:25:23;102058.69;;;25.73;64.65
80678;BME280;70042;52.494;5.502;2023-07-09T17:27:51;102055.09;;;25.74;64.28
80678;BME280;70042;52.494;5.502;2023-07-09T17:30:17;102064.00;;;25.74;64.89
80678;BME280;70042;52.494;5.502;2023-07-09T17:32:45;102072.03;;;25.74;64.15
80678;BME280;70042;52.494;5.502;2023-07-09T17:35:10;102065.72;;;25.75;64.28
80678;BME280;70042;52.494;5.502;2023-07-09T17:37:35;102059.44;;;25.76;64.38
80678;BME280;70042;52.494;5.502;2023-07-09T17:40:01;102062.94;;;25.78;64.51
80678;BME280;70042;52.494;5.502;2023-07-09T17:42:27;102061.22;;;25.77;64.08
80678;BME280;70042;52.494;5.502;2023-07-09T17:44:53;102073.63;;;25.78;63.74
80678;BME280;70042;52.494;5.502;2023-07-09T17:47:19;102069.16;;;25.79;64.05